Time;durP1;ratioP1;P1;durP2;ratioP2;P2;SDS_P1;SDS_P2;PMS_P1;PMS_P2;Temp;Humidity;BMP_temperature;BMP_pressure;BME280_temperature;BME280_humidity;BME280_pressure;Samples;Min_cycle;Max_cycle;Signal;HPM_P1;HPM_P2
2021/08/17 00:03:53;;;;;;;11.90;9.67;;;;;;;19.31;100.00;99361.89;713842;1180;114601;-76
2021/08/17 00:18:55;;;;;;;13.55;8.88;;;;;;;19.06;100.00;99358.17;715052;1199;115751;-76
2021/08/17 00:33:58;;;;;;;21.60;12.25;;;;;;;18.61;100.00;99371.44;714354;1202;114217;-75
2021/08/17 00:49:00;;;;;;;22.10;12.33;;;;;;;18.51;100.00;99384.34;714737;1177;115629;-75
2021/08/17 01:04:03;;;;;;;19.65;10.33;;;;;;;18.39;100.00;99358.42;713807;1200;115961;-75
2021/08/17 01:19:05;;;;;;;10.75;6.70;;;;;;;18.25;100.00;99378.89;713781;1200;114789;-75
2021/08/17 01:34:07;;;;;;;6.48;4.55;;;;;;;17.98;100.00;99387.92;715437;1200;114222;-76
2021/08/17 01:49:11;;;;;;;12.87;4.93;;;;;;;17.65;100.00;99415.23;714224;1203;115514;-77
2021/08/17 02:04:14;;;;;;;5.63;3.78;;;;;;;17.45;100.00;99416.81;713847;1203;116003;-76
2021/08/17 02:19:16;;;;;;;7.28;3.80;;;;;;;17.31;100.00;99420.45;713917;1200;114039;-76
2021/08/17 02:34:18;;;;;;;7.00;3.20;;;;;;;17.11;100.00;99421.21;713834;1200;114133;-75
2021/08/17 02:49:20;;;;;;;5.77;2.90;;;;;;;17.03;100.00;99434.64;714097;1200;114453;-74
2021/08/17 03:04:23;;;;;;;5.27;2.60;;;;;;;16.59;100.00;99473.72;714244;1200;114711;-76
2021/08/17 03:19:25;;;;;;;6.58;3.10;;;;;;;16.44;100.00;99481.78;714174;1199;115070;-76
2021/08/17 03:34:27;;;;;;;4.65;3.15;;;;;;;16.43;100.00;99488.08;714187;1200;114360;-74
2021/08/17 03:49:29;;;;;;;5.63;3.30;;;;;;;16.16;100.00;99486.24;714406;1199;114024;-75
2021/08/17 04:04:31;;;;;;;5.28;2.83;;;;;;;15.75;100.00;99506.98;714341;1200;114110;-75
2021/08/17 04:19:38;;;;;;;5.18;3.35;;;;;;;15.45;100.00;99522.11;714422;1202;113595;-74
2021/08/17 04:34:40;;;;;;;4.37;2.60;;;;;;;15.06;100.00;99549.69;714419;1200;114498;-75
2021/08/17 04:49:43;;;;;;;6.68;2.70;;;;;;;15.03;100.00;99548.23;714459;1203;115558;-74
2021/08/17 05:04:45;;;;;;;5.68;2.80;;;;;;;14.93;100.00;99568.80;714295;1188;115674;-76
2021/08/17 05:19:46;;;;;;;5.20;2.83;;;;;;;15.06;100.00;99550.50;714549;1177;115322;-78
2021/08/17 05:34:49;;;;;;;5.85;2.80;;;;;;;15.23;100.00;99566.15;714673;1177;113974;-77
2021/08/17 05:49:51;;;;;;;5.90;2.65;;;;;;;15.04;100.00;99563.05;714310;1178;115462;-76
2021/08/17 06:04:53;;;;;;;8.25;3.15;;;;;;;15.31;100.00;99552.86;714509;1201;115607;-76
2021/08/17 06:19:56;;;;;;;4.87;2.33;;;;;;;15.43;100.00;99555.86;714609;1175;114736;-77
2021/08/17 06:34:58;;;;;;;5.08;2.70;;;;;;;15.66;100.00;99549.61;714604;1200;114852;-77
2021/08/17 06:50:01;;;;;;;7.35;2.03;;;;;;;16.00;100.00;99556.11;714516;1186;114223;-77
2021/08/17 07:05:05;;;;;;;4.93;2.15;;;;;;;16.97;100.00;99570.53;715364;1200;114520;-78
2021/08/17 07:20:08;;;;;;;2.10;1.73;;;;;;;17.02;100.00;99572.61;717929;1174;113941;-82
2021/08/17 07:35:12;;;;;;;4.00;1.90;;;;;;;16.62;100.00;99562.53;717194;1200;115375;-81
2021/08/17 07:50:15;;;;;;;4.75;1.90;;;;;;;16.38;100.00;99585.77;714916;1200;114548;-74
2021/08/17 08:05:18;;;;;;;17.08;6.10;;;;;;;16.75;100.00;99578.52;714680;1177;113907;-79
2021/08/17 08:20:21;;;;;;;5.93;3.10;;;;;;;16.61;100.00;99595.31;714656;1205;115764;-76
2021/08/17 08:35:24;;;;;;;6.78;2.33;;;;;;;17.19;99.71;99591.67;715052;1200;115755;-75
2021/08/17 08:50:29;;;;;;;4.85;2.80;;;;;;;17.32;98.06;99567.88;714755;1200;114397;-74
2021/08/17 09:05:49;;;;;;;8.05;2.53;;;;;;;16.89;96.58;99573.31;714823;1174;113770;-73
2021/08/17 09:20:52;;;;;;;4.05;2.58;;;;;;;17.13;94.28;99572.08;714590;1200;113815;-73
2021/08/17 09:35:55;;;;;;;4.20;2.33;;;;;;;16.86;94.45;99587.76;715169;1200;113918;-73
2021/08/17 09:50:58;;;;;;;7.35;2.35;;;;;;;17.17;94.53;99591.87;714712;1200;115030;-73
2021/08/17 10:06:02;;;;;;;5.53;2.40;;;;;;;16.87;97.52;99604.48;715081;1200;113748;-73
2021/08/17 10:21:06;;;;;;;4.50;2.57;;;;;;;18.36;97.09;99612.91;714993;1176;113868;-74
2021/08/17 10:36:10;;;;;;;6.28;2.33;;;;;;;19.64;86.35;99603.74;714770;1200;114284;-73
2021/08/17 10:51:18;;;;;;;3.20;1.90;;;;;;;18.38;84.39;99630.25;714751;1200;115423;-74
2021/08/17 11:06:47;;;;;;;6.17;2.43;;;;;;;19.20;86.29;99613.28;714675;1200;114572;-75
2021/08/17 11:21:53;;;;;;;5.67;2.40;;;;;;;20.08;78.27;99599.43;714987;1200;115044;-76
2021/08/17 11:37:02;;;;;;;4.90;1.95;;;;;;;19.71;76.55;99606.38;715417;1200;113828;-72
2021/08/17 11:52:08;;;;;;;2.70;1.60;;;;;;;19.90;72.43;99623.28;714916;1200;115171;-77
2021/08/17 12:07:15;;;;;;;4.95;1.83;;;;;;;19.39;74.59;99624.91;715105;1200;114213;-75
2021/08/17 12:22:27;;;;;;;3.80;2.13;;;;;;;20.00;73.95;99618.33;714621;1200;113950;-75
2021/08/17 12:37:37;;;;;;;7.25;3.18;;;;;;;19.64;73.73;99619.70;715521;1199;113378;-75
2021/08/17 12:52:39;;;;;;;3.03;1.78;;;;;;;19.02;75.91;99635.22;714427;1200;114387;-77
2021/08/17 13:07:42;;;;;;;2.93;1.70;;;;;;;20.02;76.84;99632.25;714618;1200;113732;-76
2021/08/17 13:22:45;;;;;;;4.73;1.90;;;;;;;20.01;75.46;99661.75;714440;1176;114232;-77
2021/08/17 13:37:48;;;;;;;4.97;1.70;;;;;;;19.40;77.39;99631.84;714599;1200;113940;-76
2021/08/17 13:52:51;;;;;;;3.95;1.60;;;;;;;19.70;77.14;99645.45;715167;1200;113987;-76
2021/08/17 14:07:54;;;;;;;4.60;1.65;;;;;;;21.50;77.34;99657.70;714358;1178;114021;-75
2021/08/17 14:23:01;;;;;;;3.88;2.10;;;;;;;19.94;78.72;99670.58;714305;1200;113796;-76
2021/08/17 14:38:03;;;;;;;6.50;1.95;;;;;;;19.56;80.55;99660.66;714546;1200;115587;-76
2021/08/17 14:53:07;;;;;;;4.08;1.65;;;;;;;19.28;82.38;99674.20;714430;1204;114250;-76
2021/08/17 15:08:11;;;;;;;4.00;1.88;;;;;;;19.37;83.31;99678.28;714481;1202;113808;-76
2021/08/17 15:23:14;;;;;;;5.70;2.65;;;;;;;18.95;84.79;99677.71;714812;1180;115464;-75
2021/08/17 15:38:17;;;;;;;6.00;2.10;;;;;;;18.79;85.07;99685.06;714791;1178;115233;-77
2021/08/17 15:53:20;;;;;;;5.90;1.70;;;;;;;18.70;86.82;99693.41;714829;1200;115136;-76
2021/08/17 16:08:22;;;;;;;5.58;2.30;;;;;;;18.55;90.42;99699.73;714934;1205;115206;-77
2021/08/17 16:23:25;;;;;;;5.08;1.93;;;;;;;18.26;92.75;99692.93;714598;1178;113800;-79
2021/08/17 16:38:28;;;;;;;5.13;2.23;;;;;;;17.89;97.64;99687.06;714687;1174;113827;-80
2021/08/17 16:53:30;;;;;;;9.63;4.83;;;;;;;17.65;100.00;99693.69;714543;1202;115089;-78
2021/08/17 17:08:32;;;;;;;6.15;3.53;;;;;;;17.23;100.00;99698.92;714528;1200;115728;-79
2021/08/17 17:23:35;;;;;;;7.07;3.17;;;;;;;16.98;100.00;99687.94;714714;1182;113975;-80
2021/08/17 17:38:37;;;;;;;12.88;5.15;;;;;;;16.87;100.00;99691.89;714680;1200;114738;-79
2021/08/17 17:53:39;;;;;;;17.65;10.95;;;;;;;17.04;100.00;99706.53;715045;1200;114150;-81
2021/08/17 18:08:42;;;;;;;17.53;8.40;;;;;;;17.01;100.00;99738.72;715671;1176;115150;-81
2021/08/17 18:23:45;;;;;;;11.37;4.60;;;;;;;16.88;100.00;99767.68;714888;1200;114190;-80
2021/08/17 18:38:47;;;;;;;5.23;3.10;;;;;;;16.63;100.00;99762.77;714683;1181;114423;-82
2021/08/17 18:53:49;;;;;;;6.60;2.70;;;;;;;16.61;100.00;99765.58;715189;1200;114452;-85
2021/08/17 19:08:52;;;;;;;5.35;2.28;;;;;;;16.59;100.00;99749.08;715771;1200;114494;-83
2021/08/17 19:24:11;;;;;;;6.05;2.20;;;;;;;16.49;100.00;99761.79;714884;1200;114540;-84
2021/08/17 19:39:14;;;;;;;5.93;2.10;;;;;;;16.33;100.00;99746.95;714955;1200;114063;-84
2021/08/17 19:54:17;;;;;;;7.70;2.57;;;;;;;16.12;100.00;99759.11;714998;1176;114080;-82
2021/08/17 20:09:20;;;;;;;8.87;3.57;;;;;;;15.92;100.00;99752.77;714922;1200;114091;-80
2021/08/17 20:24:22;;;;;;;9.53;2.50;;;;;;;15.87;100.00;99752.48;714990;1200;114077;-80
2021/08/17 20:39:24;;;;;;;4.25;2.70;;;;;;;16.00;100.00;99751.84;714868;1177;114444;-84
2021/08/17 20:54:28;;;;;;;6.73;2.40;;;;;;;15.89;100.00;99745.17;714817;1200;115436;-82
2021/08/17 21:09:31;;;;;;;9.40;3.30;;;;;;;15.95;100.00;99736.52;714709;1202;114992;-83
2021/08/17 21:24:37;;;;;;;6.50;2.85;;;;;;;15.97;100.00;99722.10;715505;1200;114130;-81
2021/08/17 21:39:39;;;;;;;6.80;3.45;;;;;;;16.05;100.00;99707.95;714694;1176;113786;-82
2021/08/17 21:54:42;;;;;;;10.70;3.60;;;;;;;16.09;99.16;99693.34;714132;1200;114423;-82
2021/08/17 22:09:44;;;;;;;6.95;2.93;;;;;;;15.87;98.83;99673.14;714054;1178;114133;-83
2021/08/17 22:24:46;;;;;;;7.53;3.13;;;;;;;15.80;98.44;99663.30;714967;1200;114141;-83
2021/08/17 22:39:48;;;;;;;13.57;5.40;;;;;;;15.84;97.88;99662.95;714295;1206;116186;-83
2021/08/17 22:54:50;;;;;;;9.20;4.23;;;;;;;15.96;98.07;99666.74;714315;1185;114077;-82
2021/08/17 23:09:52;;;;;;;7.43;3.50;;;;;;;15.96;99.17;99672.03;714324;1200;113861;-83
2021/08/17 23:24:55;;;;;;;10.25;3.90;;;;;;;15.92;100.00;99676.05;713767;1203;113839;-83
2021/08/17 23:39:57;;;;;;;11.80;4.45;;;;;;;15.96;100.00;99674.67;713830;1185;114089;-84
2021/08/17 23:55:00;;;;;;;11.28;4.45;;;;;;;15.96;100.00;99678.13;713767;1199;114572;-83
